createdAt,value
2023-06-30T00:01:41.325Z,20.53
2023-06-30T00:04:08.697Z,20.40
2023-06-30T00:06:35.854Z,20.41
2023-06-30T00:09:05.291Z,20.46
2023-06-30T00:11:32.696Z,20.30
2023-06-30T00:13:59.945Z,20.31
2023-06-30T00:16:27.244Z,20.20
2023-06-30T00:18:57.230Z,20.27
2023-06-30T00:21:24.430Z,20.38
2023-06-30T00:23:51.515Z,20.39
2023-06-30T00:26:18.596Z,20.38
2023-06-30T00:28:45.790Z,20.35
2023-06-30T00:31:12.835Z,20.28
2023-06-30T00:33:39.960Z,20.13
2023-06-30T00:36:07.103Z,19.96
2023-06-30T00:38:34.274Z,20.00
2023-06-30T00:41:01.471Z,20.11
2023-06-30T00:43:28.558Z,20.07
2023-06-30T00:45:56.056Z,20.01
2023-06-30T00:48:23.431Z,19.86
2023-06-30T00:50:51.032Z,19.78
2023-06-30T00:53:18.457Z,19.82
2023-06-30T00:55:46.309Z,19.75
2023-06-30T00:58:13.662Z,19.62
2023-06-30T01:00:40.796Z,19.68
2023-06-30T01:03:31.876Z,19.83
2023-06-30T01:06:22.671Z,19.66
2023-06-30T01:09:06.772Z,19.58
2023-06-30T01:11:35.320Z,19.74
2023-06-30T01:14:05.889Z,19.66
2023-06-30T01:16:34.670Z,19.69
2023-06-30T01:19:07.522Z,19.45
2023-06-30T01:21:35.433Z,19.47
2023-06-30T01:24:10.672Z,19.35
2023-06-30T01:26:38.699Z,19.57
2023-06-30T01:29:08.055Z,19.52
2023-06-30T01:31:35.476Z,19.32
2023-06-30T01:34:03.892Z,19.44
2023-06-30T01:36:31.045Z,19.53
2023-06-30T01:38:58.080Z,19.52
2023-06-30T01:41:25.418Z,19.51
2023-06-30T01:43:52.989Z,19.54
2023-06-30T01:46:20.268Z,19.59
2023-06-30T01:48:47.884Z,19.54
2023-06-30T01:51:16.597Z,19.31
2023-06-30T01:53:43.678Z,19.08
2023-06-30T01:56:11.094Z,19.07
2023-06-30T01:58:38.206Z,19.07
2023-06-30T02:01:05.398Z,19.20
2023-06-30T02:03:32.582Z,19.32
2023-06-30T02:05:59.692Z,19.29
2023-06-30T02:08:26.806Z,19.08
2023-06-30T02:10:53.900Z,19.20
2023-06-30T02:13:20.925Z,19.19
2023-06-30T02:15:48.282Z,19.19
2023-06-30T02:18:15.465Z,19.19
2023-06-30T02:20:42.547Z,19.13
2023-06-30T02:23:09.664Z,18.96
2023-06-30T02:25:36.730Z,19.05
2023-06-30T02:28:04.044Z,19.07
2023-06-30T02:30:31.192Z,19.04
2023-06-30T02:32:59.019Z,18.94
2023-06-30T02:35:26.362Z,18.92
2023-06-30T02:37:53.524Z,18.81
2023-06-30T02:40:20.653Z,18.99
2023-06-30T02:42:47.850Z,19.04
2023-06-30T02:45:14.963Z,19.10
2023-06-30T02:47:42.050Z,19.13
2023-06-30T02:50:09.579Z,19.07
2023-06-30T02:52:36.713Z,19.06
2023-06-30T02:55:04.190Z,19.19
2023-06-30T02:57:31.234Z,19.21
2023-06-30T02:59:58.387Z,19.23
2023-06-30T03:02:25.808Z,19.28
2023-06-30T03:04:53.026Z,19.30
2023-06-30T03:07:20.154Z,19.33
2023-06-30T03:09:47.302Z,19.39
2023-06-30T03:12:14.691Z,19.26
2023-06-30T03:14:41.903Z,19.35
2023-06-30T03:17:09.046Z,19.19
2023-06-30T03:19:36.251Z,19.32
2023-06-30T03:22:03.379Z,19.49
2023-06-30T03:24:30.541Z,19.66
2023-06-30T03:26:58.011Z,19.81
2023-06-30T03:29:25.061Z,19.65
2023-06-30T03:31:52.207Z,19.83
2023-06-30T03:34:19.290Z,20.11
2023-06-30T03:36:46.438Z,20.29
2023-06-30T03:39:13.550Z,20.35
2023-06-30T03:41:40.711Z,20.52
2023-06-30T03:44:07.800Z,20.83
2023-06-30T03:46:35.514Z,21.47
2023-06-30T03:49:02.624Z,22.47
2023-06-30T03:51:29.850Z,23.59
2023-06-30T03:53:56.937Z,24.49
2023-06-30T03:56:24.200Z,25.19
2023-06-30T03:58:51.272Z,25.80
2023-06-30T04:01:18.337Z,26.08
2023-06-30T04:03:45.610Z,26.36
2023-06-30T04:06:12.933Z,26.82
2023-06-30T04:08:40.061Z,27.14
2023-06-30T04:11:07.163Z,27.61
2023-06-30T04:13:34.361Z,26.31
2023-06-30T04:16:01.556Z,25.14
2023-06-30T04:18:28.710Z,26.30
2023-06-30T04:20:55.770Z,27.78
2023-06-30T04:23:22.808Z,28.71
2023-06-30T04:25:49.893Z,29.60
2023-06-30T04:28:17.189Z,30.02
2023-06-30T04:30:44.352Z,30.47
2023-06-30T04:33:11.402Z,30.81
2023-06-30T04:35:38.580Z,31.21
2023-06-30T04:38:05.733Z,31.66
2023-06-30T04:40:32.945Z,32.07
2023-06-30T04:43:01.518Z,32.66
2023-06-30T04:45:28.931Z,32.93
2023-06-30T04:47:56.343Z,33.33
2023-06-30T04:50:26.222Z,33.74
2023-06-30T04:52:53.433Z,34.07
2023-06-30T04:55:20.574Z,34.82
2023-06-30T04:57:47.685Z,35.10
2023-06-30T05:00:15.513Z,35.47
2023-06-30T05:02:42.757Z,36.08
2023-06-30T05:05:09.962Z,36.57
2023-06-30T05:07:37.164Z,36.90
2023-06-30T05:10:04.436Z,37.32
2023-06-30T05:12:31.607Z,37.44
2023-06-30T05:14:58.650Z,37.57
2023-06-30T05:17:26.018Z,37.99
2023-06-30T05:19:53.218Z,38.88
2023-06-30T05:22:20.372Z,39.23
2023-06-30T05:24:47.525Z,39.49
2023-06-30T05:27:15.411Z,39.83
2023-06-30T05:29:42.503Z,39.79
2023-06-30T05:32:09.750Z,39.83
2023-06-30T05:34:36.832Z,39.93
2023-06-30T05:37:04.229Z,40.11
2023-06-30T05:39:31.358Z,40.53
2023-06-30T05:42:03.173Z,40.49
2023-06-30T05:44:30.357Z,41.11
2023-06-30T05:46:57.562Z,41.33
2023-06-30T05:49:26.508Z,41.68
2023-06-30T05:51:53.614Z,41.79
2023-06-30T05:54:20.805Z,41.81
2023-06-30T05:56:48.138Z,42.21
2023-06-30T05:59:15.255Z,41.79
2023-06-30T06:01:42.341Z,42.17
2023-06-30T06:04:12.075Z,41.47
2023-06-30T06:06:39.778Z,38.46
2023-06-30T06:09:07.590Z,40.24
2023-06-30T06:11:34.732Z,41.45
2023-06-30T06:14:01.871Z,42.02
2023-06-30T06:16:29.037Z,42.68
2023-06-30T06:18:56.265Z,41.53
2023-06-30T06:21:28.613Z,40.34
2023-06-30T06:23:56.791Z,42.15
2023-06-30T06:26:24.018Z,42.83
2023-06-30T06:28:51.195Z,43.35
2023-06-30T06:31:18.393Z,43.71
2023-06-30T06:33:45.566Z,44.22
2023-06-30T06:36:12.751Z,44.85
2023-06-30T06:38:40.007Z,44.55
2023-06-30T06:41:07.054Z,44.39
2023-06-30T06:43:34.215Z,44.25
2023-06-30T06:46:01.355Z,42.80
2023-06-30T06:48:29.740Z,44.45
2023-06-30T06:50:59.346Z,44.22
2023-06-30T06:53:31.906Z,44.46
2023-06-30T06:55:59.111Z,44.26
2023-06-30T06:58:32.564Z,44.36
2023-06-30T07:01:00.095Z,44.20
2023-06-30T07:03:27.409Z,44.64
2023-06-30T07:05:56.388Z,44.75
2023-06-30T07:08:23.761Z,44.59
2023-06-30T07:10:51.736Z,44.11
2023-06-30T07:13:21.213Z,44.04
2023-06-30T07:15:49.976Z,42.57
2023-06-30T07:18:19.981Z,42.55
2023-06-30T07:20:55.385Z,43.52
2023-06-30T07:23:25.405Z,42.06
2023-06-30T07:25:53.860Z,40.70
2023-06-30T07:28:20.981Z,40.02
2023-06-30T07:30:48.731Z,39.95
2023-06-30T07:33:15.788Z,38.95
2023-06-30T07:35:43.404Z,38.07
2023-06-30T07:38:11.144Z,38.59
2023-06-30T07:40:51.072Z,38.17
2023-06-30T07:43:21.848Z,37.59
2023-06-30T07:45:49.496Z,37.57
2023-06-30T07:48:17.002Z,37.99
2023-06-30T07:50:54.760Z,38.98
2023-06-30T07:53:30.798Z,38.41
2023-06-30T07:55:57.864Z,38.15
2023-06-30T07:58:25.046Z,39.07
2023-06-30T08:00:52.139Z,39.41
2023-06-30T08:03:19.619Z,39.51
2023-06-30T08:05:47.714Z,39.51
2023-06-30T08:08:15.501Z,39.62
2023-06-30T08:10:44.714Z,39.74
2023-06-30T08:13:12.308Z,40.65
2023-06-30T08:15:39.463Z,41.35
2023-06-30T08:18:10.314Z,41.85
2023-06-30T08:20:38.203Z,41.64
2023-06-30T08:23:05.586Z,41.23
2023-06-30T08:25:32.783Z,40.79
2023-06-30T08:28:00.084Z,40.88
2023-06-30T08:30:27.258Z,41.14
2023-06-30T08:32:55.951Z,40.44
2023-06-30T08:35:24.901Z,40.81
2023-06-30T08:37:53.833Z,40.57
2023-06-30T08:40:27.069Z,40.65
2023-06-30T08:42:56.421Z,40.90
2023-06-30T08:45:29.519Z,39.71
2023-06-30T08:48:07.344Z,40.13
2023-06-30T08:50:35.065Z,40.30
2023-06-30T08:53:03.340Z,40.32
2023-06-30T08:55:31.253Z,40.49
2023-06-30T08:58:04.292Z,40.57
2023-06-30T09:00:37.201Z,39.70
2023-06-30T09:03:07.580Z,39.00
2023-06-30T09:05:39.764Z,38.39
2023-06-30T09:08:29.579Z,37.49
2023-06-30T09:10:57.767Z,37.93
2023-06-30T09:13:25.649Z,37.09
2023-06-30T09:15:57.330Z,36.26
2023-06-30T09:18:25.046Z,36.41
2023-06-30T09:20:53.940Z,36.94
2023-06-30T09:23:21.162Z,36.74
2023-06-30T09:25:48.819Z,35.95
2023-06-30T09:28:16.419Z,35.88
2023-06-30T09:30:48.356Z,36.57
2023-06-30T09:33:17.890Z,36.64
2023-06-30T09:35:47.929Z,36.89
2023-06-30T09:38:19.351Z,37.44
2023-06-30T09:40:49.577Z,37.19
2023-06-30T09:43:22.347Z,37.45
2023-06-30T09:45:59.290Z,37.76
2023-06-30T09:48:46.810Z,38.09
2023-06-30T09:51:20.623Z,37.49
2023-06-30T09:53:47.796Z,36.88
2023-06-30T09:56:22.863Z,36.79
2023-06-30T09:58:57.064Z,36.40
2023-06-30T10:01:24.734Z,36.37
2023-06-30T10:03:55.996Z,35.85
2023-06-30T10:06:24.744Z,35.74
2023-06-30T10:08:52.790Z,35.49
2023-06-30T10:11:24.643Z,35.81
2023-06-30T10:13:57.020Z,35.00
2023-06-30T10:16:24.410Z,35.24
2023-06-30T10:18:52.843Z,35.28
2023-06-30T10:21:20.467Z,34.90
2023-06-30T10:23:49.628Z,34.90
2023-06-30T10:26:20.725Z,34.69
2023-06-30T10:28:49.002Z,35.22
2023-06-30T10:31:17.072Z,35.32
2023-06-30T10:33:44.411Z,35.21
2023-06-30T10:36:12.281Z,35.47
2023-06-30T10:38:41.882Z,35.38
2023-06-30T10:41:20.591Z,35.48
2023-06-30T10:44:10.441Z,35.66
2023-06-30T10:46:51.241Z,35.37
2023-06-30T10:49:42.238Z,34.76
2023-06-30T10:52:12.249Z,35.24
2023-06-30T10:54:47.672Z,35.11
2023-06-30T10:57:25.376Z,34.70
2023-06-30T11:00:13.028Z,34.42
2023-06-30T11:02:50.790Z,34.40
2023-06-30T11:05:27.639Z,34.50
2023-06-30T11:08:23.184Z,34.60
2023-06-30T11:10:51.691Z,34.58
2023-06-30T11:13:37.590Z,34.30
2023-06-30T11:16:04.957Z,34.06
2023-06-30T11:18:35.039Z,34.04
2023-06-30T11:21:07.021Z,33.83
2023-06-30T11:23:43.839Z,33.54
2023-06-30T11:26:17.647Z,33.46
2023-06-30T11:28:49.522Z,33.99
2023-06-30T11:31:17.758Z,33.90
2023-06-30T11:33:46.393Z,34.11
2023-06-30T11:36:18.858Z,34.04
2023-06-30T11:38:50.738Z,34.07
2023-06-30T11:41:24.707Z,34.16
2023-06-30T11:43:56.768Z,33.89
2023-06-30T11:46:24.724Z,33.90
2023-06-30T11:48:52.063Z,33.74
2023-06-30T11:51:19.282Z,33.53
2023-06-30T11:53:50.130Z,33.49
2023-06-30T11:56:21.034Z,33.41
2023-06-30T11:58:52.616Z,33.06
2023-06-30T12:01:22.889Z,33.06
2023-06-30T12:04:09.877Z,33.26
2023-06-30T12:06:40.188Z,33.09
2023-06-30T12:09:07.872Z,33.15
2023-06-30T12:11:35.092Z,33.38
2023-06-30T12:14:09.753Z,33.42
2023-06-30T12:16:45.120Z,33.17
2023-06-30T12:19:13.932Z,32.97
2023-06-30T12:22:04.969Z,33.17
2023-06-30T12:24:33.749Z,33.23
2023-06-30T12:27:07.916Z,33.11
2023-06-30T12:29:36.706Z,32.95
2023-06-30T12:32:15.530Z,33.09
2023-06-30T12:34:43.368Z,33.24
2023-06-30T12:37:10.680Z,33.14
2023-06-30T12:39:37.767Z,33.23
2023-06-30T12:42:05.492Z,32.96
2023-06-30T12:44:32.719Z,32.72
2023-06-30T12:47:06.574Z,32.69
2023-06-30T12:49:41.015Z,32.92
2023-06-30T12:52:08.760Z,32.78
2023-06-30T12:54:35.811Z,32.69
2023-06-30T12:57:03.075Z,32.56
2023-06-30T12:59:30.268Z,32.34
2023-06-30T13:01:57.494Z,32.18
2023-06-30T13:04:25.960Z,31.99
2023-06-30T13:06:54.633Z,31.81
2023-06-30T13:09:21.766Z,31.81
2023-06-30T13:11:48.872Z,31.84
2023-06-30T13:14:16.985Z,31.81
2023-06-30T13:16:44.076Z,31.76
2023-06-30T13:19:11.885Z,31.75
2023-06-30T13:21:39.020Z,31.62
2023-06-30T13:24:06.696Z,31.48
2023-06-30T13:26:36.165Z,31.54
2023-06-30T13:29:05.015Z,31.41
2023-06-30T13:31:32.127Z,31.38
2023-06-30T13:33:59.513Z,31.47
2023-06-30T13:36:29.362Z,31.40
2023-06-30T13:38:58.498Z,31.26
2023-06-30T13:41:28.436Z,31.03
2023-06-30T13:43:55.627Z,31.05
2023-06-30T13:46:22.863Z,31.02
2023-06-30T13:48:49.983Z,30.91
2023-06-30T13:51:17.111Z,30.74
2023-06-30T13:53:44.267Z,30.96
2023-06-30T13:56:11.341Z,30.84
2023-06-30T13:58:38.410Z,30.72
2023-06-30T14:01:06.741Z,30.63
2023-06-30T14:03:34.631Z,30.64
2023-06-30T14:06:01.905Z,30.63
2023-06-30T14:08:29.064Z,30.69
2023-06-30T14:10:57.492Z,30.69
2023-06-30T14:13:28.542Z,30.74
2023-06-30T14:15:55.671Z,30.65
2023-06-30T14:18:22.780Z,30.91
2023-06-30T14:20:49.918Z,31.18
2023-06-30T14:23:17.140Z,31.39
2023-06-30T14:25:44.806Z,31.44
2023-06-30T14:28:12.240Z,31.48
2023-06-30T14:30:39.492Z,31.35
2023-06-30T14:33:06.798Z,31.37
2023-06-30T14:35:33.931Z,31.42
2023-06-30T14:38:01.582Z,31.29
2023-06-30T14:40:31.111Z,31.44
2023-06-30T14:42:59.580Z,31.36
2023-06-30T14:45:30.978Z,31.32
2023-06-30T14:47:58.633Z,31.33
2023-06-30T14:50:27.011Z,31.52
2023-06-30T14:52:54.690Z,31.54
2023-06-30T14:55:21.848Z,31.54
2023-06-30T14:57:50.787Z,31.65
2023-06-30T15:00:18.380Z,31.35
2023-06-30T15:02:45.585Z,31.17
2023-06-30T15:05:12.841Z,31.42
2023-06-30T15:07:39.922Z,31.41
2023-06-30T15:10:07.913Z,31.26
2023-06-30T15:12:35.271Z,31.27
2023-06-30T15:15:02.558Z,31.24
2023-06-30T15:17:29.694Z,31.23
2023-06-30T15:19:56.838Z,31.21
2023-06-30T15:22:24.031Z,31.15
2023-06-30T15:24:51.184Z,31.25
2023-06-30T15:27:18.336Z,31.19
2023-06-30T15:29:45.502Z,31.20
2023-06-30T15:32:12.583Z,31.07
2023-06-30T15:34:39.726Z,30.94
2023-06-30T15:37:06.875Z,31.01
2023-06-30T15:39:34.011Z,30.85
2023-06-30T15:42:01.110Z,30.94
2023-06-30T15:44:28.178Z,31.11
2023-06-30T15:46:55.248Z,30.91
2023-06-30T15:49:22.344Z,30.86
2023-06-30T15:51:49.500Z,30.77
2023-06-30T15:54:16.731Z,30.73
2023-06-30T15:56:43.877Z,30.83
2023-06-30T15:59:10.941Z,30.58
2023-06-30T16:01:38.018Z,30.51
2023-06-30T16:04:05.419Z,30.40
2023-06-30T16:06:32.597Z,30.43
2023-06-30T16:08:59.743Z,30.27
2023-06-30T16:11:26.893Z,30.38
2023-06-30T16:13:54.001Z,30.20
2023-06-30T16:16:21.228Z,30.12
2023-06-30T16:18:50.190Z,29.93
2023-06-30T16:21:17.431Z,30.04
2023-06-30T16:23:44.480Z,30.04
2023-06-30T16:26:11.719Z,29.93
2023-06-30T16:28:38.778Z,29.87
2023-06-30T16:31:05.899Z,29.94
2023-06-30T16:33:33.106Z,29.89
2023-06-30T16:36:00.246Z,29.71
2023-06-30T16:38:27.299Z,29.67
2023-06-30T16:40:54.442Z,29.62
2023-06-30T16:43:21.939Z,29.57
2023-06-30T16:45:49.566Z,29.46
2023-06-30T16:48:17.005Z,29.42
2023-06-30T16:50:44.089Z,29.34
2023-06-30T16:53:11.119Z,29.38
2023-06-30T16:55:38.177Z,29.34
2023-06-30T16:58:05.280Z,29.26
2023-06-30T17:00:32.399Z,29.26
2023-06-30T17:02:59.517Z,29.25
2023-06-30T17:05:26.722Z,29.20
2023-06-30T17:07:53.826Z,29.10
2023-06-30T17:10:20.931Z,29.02
2023-06-30T17:12:48.023Z,28.93
2023-06-30T17:15:15.174Z,28.91
2023-06-30T17:17:42.294Z,28.93
2023-06-30T17:20:09.914Z,28.85
2023-06-30T17:22:37.067Z,28.70
2023-06-30T17:25:05.796Z,28.92
2023-06-30T17:27:33.517Z,28.87
2023-06-30T17:30:00.628Z,28.76
2023-06-30T17:32:27.839Z,28.80
2023-06-30T17:34:54.963Z,28.72
2023-06-30T17:37:22.154Z,28.58
2023-06-30T17:39:49.285Z,28.42
2023-06-30T17:42:16.664Z,28.61
2023-06-30T17:44:44.568Z,28.62
2023-06-30T17:47:11.931Z,28.56
2023-06-30T17:49:39.257Z,28.49
2023-06-30T17:52:06.728Z,28.42
2023-06-30T17:54:34.201Z,28.27
2023-06-30T17:57:01.417Z,28.25
2023-06-30T17:59:31.983Z,28.10
2023-06-30T18:01:59.827Z,28.07
2023-06-30T18:04:27.348Z,28.07
2023-06-30T18:07:09.437Z,28.02
2023-06-30T18:09:44.857Z,27.88
2023-06-30T18:12:12.595Z,27.87
2023-06-30T18:14:42.313Z,27.86
2023-06-30T18:17:10.008Z,27.90
2023-06-30T18:19:37.128Z,27.71
2023-06-30T18:22:04.422Z,27.62
2023-06-30T18:24:31.571Z,27.58
2023-06-30T18:26:59.545Z,27.58
2023-06-30T18:29:26.988Z,27.47
2023-06-30T18:31:57.457Z,27.48
2023-06-30T18:34:26.570Z,27.47
2023-06-30T18:36:53.652Z,27.47
2023-06-30T18:39:21.375Z,27.45
2023-06-30T18:41:48.546Z,27.42
2023-06-30T18:44:15.691Z,27.47
2023-06-30T18:46:43.071Z,27.38
2023-06-30T18:49:12.389Z,27.31
2023-06-30T18:51:43.068Z,27.21
2023-06-30T18:54:10.830Z,27.24
2023-06-30T18:56:38.321Z,27.11
2023-06-30T18:59:05.587Z,27.11
2023-06-30T19:01:32.927Z,27.14
2023-06-30T19:04:00.161Z,26.97
2023-06-30T19:06:27.693Z,26.91
2023-06-30T19:08:55.456Z,26.99
2023-06-30T19:11:23.395Z,27.03
2023-06-30T19:13:51.240Z,26.99
2023-06-30T19:16:18.705Z,26.92
2023-06-30T19:18:46.656Z,26.96
2023-06-30T19:21:13.961Z,26.91
2023-06-30T19:23:42.723Z,26.98
2023-06-30T19:26:11.983Z,26.88
2023-06-30T19:28:42.471Z,26.85
2023-06-30T19:31:09.683Z,26.92
2023-06-30T19:33:38.012Z,26.82
2023-06-30T19:36:05.708Z,26.77
2023-06-30T19:38:32.825Z,26.79
2023-06-30T19:41:00.009Z,26.80
2023-06-30T19:43:27.124Z,26.78
2023-06-30T19:45:54.284Z,26.76
2023-06-30T19:48:21.571Z,26.68
2023-06-30T19:50:48.738Z,26.80
2023-06-30T19:53:16.031Z,26.75
2023-06-30T19:55:43.201Z,26.75
2023-06-30T19:58:11.017Z,26.57
2023-06-30T20:00:39.251Z,26.50
2023-06-30T20:03:07.137Z,26.52
2023-06-30T20:05:34.444Z,26.53
2023-06-30T20:08:01.697Z,26.54
2023-06-30T20:10:28.834Z,26.54
2023-06-30T20:12:56.053Z,26.44
2023-06-30T20:15:23.690Z,26.34
2023-06-30T20:17:50.925Z,26.22
2023-06-30T20:20:18.247Z,26.17
2023-06-30T20:22:46.773Z,25.97
2023-06-30T20:25:15.414Z,25.92
2023-06-30T20:27:44.682Z,25.78
2023-06-30T20:30:13.756Z,25.86
2023-06-30T20:32:40.891Z,25.66
2023-06-30T20:35:09.998Z,25.65
2023-06-30T20:37:37.313Z,25.60
2023-06-30T20:40:05.154Z,25.56
2023-06-30T20:42:32.286Z,25.54
2023-06-30T20:44:59.358Z,25.49
2023-06-30T20:47:26.700Z,25.45
2023-06-30T20:49:54.304Z,25.35
2023-06-30T20:52:21.433Z,25.41
2023-06-30T20:54:48.502Z,25.28
2023-06-30T20:57:15.702Z,25.32
2023-06-30T20:59:43.109Z,25.28
2023-06-30T21:02:10.373Z,25.19
2023-06-30T21:04:37.680Z,25.08
2023-06-30T21:07:05.265Z,25.04
2023-06-30T21:09:32.389Z,25.15
2023-06-30T21:12:01.510Z,25.06
2023-06-30T21:14:28.890Z,25.03
2023-06-30T21:16:56.036Z,25.03
2023-06-30T21:19:23.788Z,25.06
2023-06-30T21:21:50.897Z,24.95
2023-06-30T21:24:18.167Z,24.94
2023-06-30T21:26:45.288Z,24.98
2023-06-30T21:29:12.601Z,24.94
2023-06-30T21:31:39.955Z,24.84
2023-06-30T21:34:07.130Z,24.87
2023-06-30T21:36:36.499Z,24.92
2023-06-30T21:39:05.765Z,24.89
2023-06-30T21:41:32.984Z,24.83
2023-06-30T21:44:00.329Z,24.69
2023-06-30T21:46:27.538Z,24.65
2023-06-30T21:48:54.864Z,24.61
2023-06-30T21:51:21.997Z,24.52
2023-06-30T21:53:52.427Z,24.54
2023-06-30T21:56:19.551Z,24.46
2023-06-30T21:58:46.744Z,24.44
2023-06-30T22:01:15.197Z,24.22
2023-06-30T22:03:45.237Z,24.32
2023-06-30T22:06:12.461Z,24.24
2023-06-30T22:08:39.538Z,24.20
2023-06-30T22:11:06.683Z,24.22
2023-06-30T22:13:35.300Z,24.14
2023-06-30T22:16:02.426Z,24.01
2023-06-30T22:18:30.007Z,23.95
2023-06-30T22:20:57.202Z,23.84
2023-06-30T22:23:24.247Z,23.80
2023-06-30T22:25:51.442Z,23.75
2023-06-30T22:28:18.529Z,23.67
2023-06-30T22:30:46.035Z,23.50
2023-06-30T22:33:13.427Z,23.51
2023-06-30T22:35:42.889Z,23.43
2023-06-30T22:38:10.116Z,23.34
2023-06-30T22:40:37.214Z,23.26
2023-06-30T22:43:04.464Z,23.25
2023-06-30T22:45:31.703Z,23.16
2023-06-30T22:47:58.838Z,23.17
2023-06-30T22:50:26.006Z,23.18
2023-06-30T22:52:53.032Z,23.08
2023-06-30T22:55:20.135Z,22.97
2023-06-30T22:57:47.187Z,23.08
2023-06-30T23:00:15.019Z,22.94
2023-06-30T23:02:42.074Z,22.89
2023-06-30T23:05:10.580Z,22.74
2023-06-30T23:07:37.642Z,22.71
2023-06-30T23:10:05.031Z,22.83
2023-06-30T23:12:32.131Z,22.73
2023-06-30T23:14:59.136Z,22.81
2023-06-30T23:17:28.104Z,22.68
2023-06-30T23:19:55.554Z,22.65
2023-06-30T23:22:26.929Z,22.59
2023-06-30T23:24:54.031Z,22.66
2023-06-30T23:27:24.610Z,22.73
2023-06-30T23:29:52.022Z,22.62
2023-06-30T23:32:22.421Z,22.63
2023-06-30T23:34:50.633Z,22.59
2023-06-30T23:37:19.021Z,22.59
2023-06-30T23:39:51.591Z,22.66
2023-06-30T23:42:19.260Z,22.53
2023-06-30T23:44:46.500Z,22.39
2023-06-30T23:47:16.357Z,22.38
2023-06-30T23:49:43.631Z,22.26
2023-06-30T23:52:10.867Z,22.25
2023-06-30T23:54:37.963Z,22.31
2023-06-30T23:57:05.831Z,22.39
2023-06-30T23:59:33.057Z,22.33
